Time;durP1;ratioP1;P1;durP2;ratioP2;P2;SDS_P1;SDS_P2;PMS_P1;PMS_P2;Temp;Humidity;BMP_temperature;BMP_pressure;BME280_temperature;BME280_humidity;BME280_pressure;Samples;Min_cycle;Max_cycle;Signal;HPM_P1;HPM_P2
2022/05/09 15:38:07;;;;;;;2.00;0.90;;;;;;;12.73;29.21;100931.16;1861295;74;22123;-60
2022/05/09 15:40:31;;;;;;;1.00;0.70;;;;;;;12.66;29.18;100926.19;1822089;77;21584;-59
2022/05/09 15:42:57;;;;;;;7.90;1.23;;;;;;;12.58;29.14;100920.41;1824241;77;21037;-60
2022/05/09 15:45:25;;;;;;;1.20;1.00;;;;;;;12.54;29.35;100918.33;1824772;77;21344;-61
2022/05/09 15:47:57;;;;;;;1.30;0.90;;;;;;;12.53;29.59;100917.94;1820923;77;20904;-59
2022/05/09 15:50:24;;;;;;;1.27;0.80;;;;;;;12.49;29.54;100913.70;1819456;77;21081;-60
2022/05/09 15:52:52;;;;;;;1.98;0.93;;;;;;;12.46;29.53;100920.36;1822600;77;21768;-60
2022/05/09 15:55:42;;;;;;;1.17;0.60;;;;;;;12.52;29.66;100924.10;1824930;77;21796;-60
2022/05/09 15:58:09;;;;;;;1.32;0.60;;;;;;;12.54;29.81;100925.72;1685015;83;21586;-61
2022/05/09 16:00:36;;;;;;;1.55;0.70;;;;;;;12.55;29.83;100921.36;1688479;83;21617;-61
2022/05/09 16:03:03;;;;;;;1.05;0.68;;;;;;;12.46;29.78;100919.94;1648245;86;21154;-61
2022/05/09 16:11:23;;;;;;;4.28;0.82;;;;;;;12.41;30.03;100919.70;1642830;86;21235;-60
2022/05/09 16:13:29;;;;;;;2.75;0.80;;;;;;;12.22;30.26;100921.64;1635534;86;21110;-60
2022/05/09 16:15:55;;;;;;;2.27;1.02;;;;;;;12.11;30.42;100927.70;1652627;84;22329;-61
2022/05/09 16:18:26;;;;;;;3.25;1.02;;;;;;;11.98;30.42;100918.09;1650470;86;21116;-60
2022/05/09 16:20:54;;;;;;;1.80;0.90;;;;;;;11.88;30.59;100913.25;1649501;84;21112;-61
2022/05/09 16:23:22;;;;;;;1.65;1.30;;;;;;;11.73;30.77;100911.48;1652578;84;21555;-61
2022/05/09 16:25:49;;;;;;;;;;;;;;;11.64;30.74;100915.72;1659336;85;21037;-60
2022/05/09 16:28:18;;;;;;;;;;;;;;;11.57;30.74;100911.61;1634749;86;20586;-61
2022/05/09 16:30:47;;;;;;;1.60;0.90;;;;;;;11.48;31.00;100909.27;1634356;86;20166;-61
2022/05/09 16:33:13;;;;;;;3.85;0.85;;;;;;;11.41;30.89;100912.09;1620534;86;21215;-61
2022/05/09 16:35:40;;;;;;;1.43;0.67;;;;;;;11.32;30.78;100908.47;1627964;87;21223;-62
2022/05/09 16:38:11;;;;;;;4.12;1.42;;;;;;;11.24;30.72;100919.61;1648127;85;21558;-61
2022/05/09 16:40:49;;;;;;;2.25;1.10;;;;;;;11.15;30.88;100909.45;1652351;85;21020;-61
2022/05/09 16:43:24;;;;;;;1.92;0.75;;;;;;;11.10;30.86;100919.19;1652541;84;21041;-60
2022/05/09 16:45:53;;;;;;;4.30;1.00;;;;;;;11.03;30.86;100912.41;1655119;84;21084;-61
2022/05/09 16:48:19;;;;;;;1.10;0.70;;;;;;;10.81;30.76;100914.38;1623207;87;21214;-60
2022/05/09 16:50:46;;;;;;;4.50;1.33;;;;;;;10.81;30.76;100914.38;1617538;87;21192;-60
2022/05/09 16:53:13;;;;;;;1.30;0.87;;;;;;;10.77;30.89;100907.52;1622343;87;21112;-60
2022/05/09 16:55:42;;;;;;;;;;;;;;;10.71;30.86;100899.86;1624872;87;21675;-60
2022/05/09 16:58:18;;;;;;;3.00;1.02;;;;;;;10.65;30.85;100910.48;1636437;86;21140;-60
2022/05/09 17:00:47;;;;;;;4.30;1.10;;;;;;;10.38;30.95;100882.94;1654799;84;21479;-60
2022/05/09 17:03:14;;;;;;;7.47;1.47;;;;;;;10.38;30.95;100882.94;1668993;85;21018;-60
2022/05/09 17:05:41;;;;;;;2.35;0.90;;;;;;;10.09;30.99;100883.26;1641130;86;21135;-61
2022/05/09 17:08:08;;;;;;;3.58;1.62;;;;;;;10.09;30.99;100883.26;1658920;85;20979;-60
2022/05/09 17:10:35;;;;;;;3.92;1.60;;;;;;;10.13;30.97;100894.92;1642268;86;22254;-60
2022/05/09 17:13:04;;;;;;;4.90;1.60;;;;;;;10.06;31.12;100901.61;1652404;85;21134;-61
2022/05/09 17:15:37;;;;;;;2.98;1.40;;;;;;;10.02;31.14;100893.44;1660770;85;21617;-61
2022/05/09 17:18:07;;;;;;;3.72;1.67;;;;;;;9.89;31.29;100890.76;1578982;88;21076;-60
2022/05/09 17:20:37;;;;;;;3.58;1.65;;;;;;;9.77;31.44;100892.36;1635810;86;21494;-60
2022/05/09 17:23:05;;;;;;;4.92;1.80;;;;;;;9.66;31.54;100892.62;1631046;86;21742;-60
2022/05/09 17:25:48;;;;;;;2.85;1.37;;;;;;;9.56;31.46;100899.83;1626830;86;21112;-60
2022/05/09 17:28:19;;;;;;;2.90;1.50;;;;;;;9.44;31.70;100894.92;1643012;86;21678;-60
2022/05/09 17:30:47;;;;;;;2.92;1.37;;;;;;;9.28;31.81;100889.66;1657820;84;20986;-60
2022/05/09 17:33:23;;;;;;;4.95;1.87;;;;;;;9.19;31.92;100892.88;1646172;86;20998;-60
2022/05/09 17:38:39;;;;;;;7.60;4.58;;;;;;;9.03;32.54;100887.59;1634563;86;21057;-61
2022/05/09 17:41:17;;;;;;;7.05;2.12;;;;;;;8.91;32.51;100885.28;1647270;86;21021;-61
2022/05/09 17:43:45;;;;;;;5.92;2.67;;;;;;;8.84;32.82;100883.68;1645830;84;21073;-61
2022/05/09 17:46:30;;;;;;;7.95;3.85;;;;;;;8.74;32.85;100879.12;1642438;86;21113;-62
2022/05/09 17:49:00;;;;;;;4.90;3.12;;;;;;;8.66;33.01;100882.33;1644685;86;21283;-61
2022/05/09 17:51:29;;;;;;;7.40;2.80;;;;;;;8.58;33.40;100881.63;1653722;86;21540;-61
2022/05/09 17:53:57;;;;;;;4.47;2.50;;;;;;;8.50;33.39;100885.69;1647537;86;21088;-60
2022/05/09 17:56:26;;;;;;;4.10;2.12;;;;;;;8.41;33.60;100885.88;1648090;86;21043;-60
2022/05/09 17:58:54;;;;;;;3.17;1.40;;;;;;;8.33;34.01;100890.34;1685104;83;21109;-61
2022/05/09 18:01:32;;;;;;;4.05;1.87;;;;;;;8.17;34.37;100891.06;1679972;83;21600;-61
2022/05/09 18:03:58;;;;;;;3.62;2.12;;;;;;;8.05;34.62;100890.85;1657498;84;21708;-60
2022/05/09 18:06:25;;;;;;;15.88;6.15;;;;;;;7.93;34.52;100892.38;1656124;84;21630;-60
2022/05/09 18:08:52;;;;;;;12.40;6.42;;;;;;;7.73;34.90;100886.20;1655424;84;21015;-60
2022/05/09 18:11:21;;;;;;;5.03;2.70;;;;;;;7.73;34.90;100886.20;1657107;84;21035;-59
2022/05/09 18:13:50;;;;;;;8.13;4.58;;;;;;;7.62;34.92;100889.00;1657656;84;21128;-60
2022/05/09 18:16:18;;;;;;;9.85;4.10;;;;;;;7.55;34.90;100892.58;1657802;85;21054;-60
2022/05/09 18:18:49;;;;;;;9.43;5.00;;;;;;;7.48;35.21;100894.84;1655854;84;21184;-60
2022/05/09 18:21:21;;;;;;;6.83;4.95;;;;;;;7.37;35.39;100894.59;1657640;84;21045;-59
2022/05/09 18:24:03;;;;;;;11.20;4.80;;;;;;;7.26;35.65;100895.19;1654006;84;21083;-61
2022/05/09 18:26:31;;;;;;;7.35;3.67;;;;;;;7.17;35.67;100891.44;1652723;84;21526;-60
2022/05/09 18:28:59;;;;;;;9.33;3.90;;;;;;;7.06;35.90;100890.73;1659887;84;21101;-60
2022/05/09 18:31:31;;;;;;;11.48;4.28;;;;;;;6.95;35.93;100891.73;1655123;84;21207;-60
2022/05/09 18:33:59;;;;;;;6.65;3.60;;;;;;;6.87;36.20;100892.72;1682408;83;21162;-60
2022/05/09 18:36:29;;;;;;;8.23;2.65;;;;;;;6.76;36.47;100891.55;1686197;83;26512;-60
2022/05/09 18:39:04;;;;;;;5.33;2.40;;;;;;;6.64;36.63;100898.21;1686681;83;21690;-60
2022/05/09 18:41:35;;;;;;;9.15;3.37;;;;;;;6.55;37.07;100887.92;1688337;83;21069;-60
2022/05/09 18:44:01;;;;;;;9.58;3.95;;;;;;;6.44;37.01;100888.92;1680741;83;21010;-60
2022/05/09 18:46:29;;;;;;;6.08;3.08;;;;;;;6.30;37.36;100895.97;1682736;83;21015;-60
2022/05/09 18:54:30;;;;;;;5.20;3.52;;;;;;;6.00;38.06;100890.25;1669311;84;20984;-60
2022/05/09 18:56:58;;;;;;;4.60;3.00;;;;;;;5.90;38.27;100888.58;1669226;84;21146;-60
2022/05/09 18:59:25;;;;;;;8.40;3.92;;;;;;;5.82;38.34;100887.78;1680295;83;21611;-61
2022/05/09 19:01:52;;;;;;;9.40;3.62;;;;;;;5.77;38.24;100892.14;1668619;84;21176;-61
2022/05/09 19:04:20;;;;;;;5.37;3.83;;;;;;;5.68;38.63;100885.76;1681267;83;21934;-60
2022/05/09 19:06:50;;;;;;;7.60;3.90;;;;;;;5.61;38.77;100888.41;1683365;83;22061;-60
2022/05/09 19:09:18;;;;;;;12.78;4.80;;;;;;;5.54;38.71;100886.72;1682822;83;21509;-61
2022/05/09 19:11:49;;;;;;;10.70;5.83;;;;;;;5.48;38.73;100891.95;1681543;84;21254;-60
2022/05/09 19:14:21;;;;;;;21.02;6.95;;;;;;;5.43;38.88;100887.23;1682052;83;21236;-60
2022/05/09 19:16:48;;;;;;;14.35;7.67;;;;;;;5.40;39.26;100887.27;1665531;84;21171;-62
2022/05/09 19:19:15;;;;;;;14.90;7.30;;;;;;;5.36;39.04;100883.00;1652494;85;24493;-60
2022/05/09 19:21:42;;;;;;;16.93;7.20;;;;;;;5.33;39.43;100880.43;1670451;84;21084;-60
2022/05/09 19:24:10;;;;;;;13.72;7.60;;;;;;;5.29;39.48;100878.30;1670440;84;21018;-61
2022/05/09 19:26:39;;;;;;;17.17;7.55;;;;;;;5.26;39.58;100876.15;1668920;84;21049;-61
2022/05/09 19:29:11;;;;;;;18.12;7.45;;;;;;;5.24;39.77;100880.50;1673479;84;21140;-61
2022/05/09 19:31:40;;;;;;;13.58;6.42;;;;;;;5.19;39.94;100871.91;1670685;84;21419;-61
2022/05/09 19:34:32;;;;;;;18.23;7.67;;;;;;;5.15;39.95;100875.81;1698704;83;21066;-60
2022/05/09 19:37:00;;;;;;;14.13;6.45;;;;;;;5.10;40.32;100881.45;1700214;83;21656;-60
2022/05/09 19:39:29;;;;;;;9.28;5.55;;;;;;;5.03;40.83;100873.28;1698073;83;21084;-61
2022/05/09 19:41:58;;;;;;;9.75;4.40;;;;;;;4.98;40.89;100860.80;1698425;83;21272;-61
2022/05/09 19:44:42;;;;;;;10.72;5.12;;;;;;;4.96;41.08;100870.73;1697855;83;21013;-61
2022/05/09 19:47:14;;;;;;;10.93;6.70;;;;;;;4.92;41.22;100872.48;1698647;83;21057;-60
2022/05/09 19:49:47;;;;;;;12.70;6.10;;;;;;;4.88;41.71;100877.27;1699078;83;21057;-60
2022/05/09 19:55:06;;;;;;;11.63;5.60;;;;;;;4.79;42.39;100867.83;1701472;83;21259;-61
2022/05/09 19:57:32;;;;;;;15.18;6.45;;;;;;;4.79;42.29;100869.53;1695171;83;20939;-61
2022/05/09 20:00:01;;;;;;;19.23;6.25;;;;;;;4.76;42.67;100872.13;1702444;83;20978;-60
2022/05/09 20:02:29;;;;;;;14.73;5.78;;;;;;;4.72;42.90;100866.12;1693574;83;21108;-60
2022/05/09 20:04:55;;;;;;;9.53;4.87;;;;;;;4.67;43.23;100870.02;1663473;83;21150;-60
2022/05/09 20:07:23;;;;;;;10.30;6.00;;;;;;;4.64;43.21;100870.03;1697123;83;22260;-60
2022/05/09 20:09:49;;;;;;;11.43;5.62;;;;;;;4.65;43.18;100865.31;1701534;83;21057;-59
2022/05/09 20:12:21;;;;;;;13.58;6.50;;;;;;;4.64;43.48;100863.56;1694496;83;21751;-60
2022/05/09 20:14:50;;;;;;;15.60;6.50;;;;;;;4.64;43.73;100862.27;1692830;83;20947;-60
2022/05/09 20:17:16;;;;;;;11.22;6.70;;;;;;;4.63;43.86;100861.86;1694472;83;20958;-60
2022/05/09 20:19:43;;;;;;;13.40;6.13;;;;;;;4.62;43.96;100864.03;1690413;83;21460;-60
2022/05/09 20:22:11;;;;;;;10.70;5.37;;;;;;;4.63;44.53;100861.86;1698406;83;20974;-61
2022/05/09 20:24:39;;;;;;;13.30;5.87;;;;;;;4.64;44.49;100857.10;1698279;83;21768;-60
2022/05/09 20:30:01;;;;;;;12.50;4.85;;;;;;;4.65;44.63;100851.08;1705651;83;21045;-60
2022/05/09 20:32:32;;;;;;;8.25;4.37;;;;;;;4.63;45.31;100851.52;1691516;83;21248;-60
2022/05/09 20:34:59;;;;;;;9.58;4.80;;;;;;;4.65;45.22;100853.66;1693400;83;20979;-60
2022/05/09 20:40:36;;;;;;;8.53;4.90;;;;;;;4.75;45.54;100847.14;1798771;79;21113;-60
2022/05/09 20:43:08;;;;;;;10.63;4.87;;;;;;;4.75;46.04;100838.08;1771003;79;21024;-60
2022/05/09 20:45:56;;;;;;;13.28;5.33;;;;;;;4.76;46.14;100848.84;1734632;80;21105;-60
2022/05/09 20:48:23;;;;;;;8.50;4.78;;;;;;;4.75;46.30;100844.55;1734946;82;21108;-61
2022/05/09 20:50:54;;;;;;;8.35;5.50;;;;;;;4.76;46.60;100836.80;1727832;82;21610;-61
2022/05/09 20:53:28;;;;;;;11.70;6.25;;;;;;;4.72;46.72;100837.66;1726965;82;21013;-60
2022/05/09 20:55:56;;;;;;;8.75;5.42;;;;;;;4.72;46.92;100837.66;1729732;82;20907;-61
2022/05/09 20:58:24;;;;;;;9.60;5.70;;;;;;;4.68;46.85;100839.42;1726079;82;21471;-61
2022/05/09 21:00:51;;;;;;;11.38;4.45;;;;;;;4.67;46.90;100836.38;1724768;82;21483;-61
2022/05/09 21:03:41;;;;;;;7.47;4.12;;;;;;;4.66;47.37;100833.38;1726433;82;21089;-61
2022/05/09 21:06:10;;;;;;;6.58;3.87;;;;;;;4.67;47.41;100839.41;1729605;82;21503;-61
2022/05/09 21:08:36;;;;;;;5.40;3.55;;;;;;;4.65;47.45;100836.85;1736216;82;21614;-59
2022/05/09 21:11:04;;;;;;;7.40;3.50;;;;;;;4.67;47.52;100837.67;1733791;82;21428;-59
2022/05/09 21:13:31;;;;;;;6.78;3.27;;;;;;;4.71;47.52;100836.81;1733969;82;21046;-59
2022/05/09 21:15:58;;;;;;;9.63;4.63;;;;;;;4.76;47.75;100843.67;1728985;82;21020;-59
2022/05/09 21:18:24;;;;;;;8.03;4.67;;;;;;;4.76;47.99;100841.09;1692364;83;21043;-60
2022/05/09 21:20:53;;;;;;;12.20;5.20;;;;;;;4.76;48.16;100839.39;1691359;84;21116;-59
2022/05/09 21:23:20;;;;;;;10.58;5.12;;;;;;;4.74;48.13;100837.23;1689523;84;21459;-60
2022/05/09 21:25:48;;;;;;;;;;;;;;;4.71;48.39;100836.81;1691166;84;21086;-60
2022/05/09 21:28:20;;;;;;;12.07;5.58;;;;;;;4.68;48.77;100836.83;1690752;83;20121;-61
2022/05/09 21:30:47;;;;;;;11.57;5.22;;;;;;;4.67;48.59;100840.27;1692422;83;22493;-60
2022/05/09 21:33:14;;;;;;;9.37;4.80;;;;;;;4.62;48.78;100831.70;1691413;84;21490;-60
2022/05/09 21:35:45;;;;;;;7.70;4.55;;;;;;;4.59;48.86;100836.86;1654551;86;21107;-60
2022/05/09 21:38:17;;;;;;;8.20;4.60;;;;;;;4.56;48.89;100837.31;1682684;83;21540;-60
2022/05/09 21:43:30;;;;;;;7.47;4.28;;;;;;;4.44;49.37;100833.06;1681604;84;21086;-61
2022/05/09 21:45:56;;;;;;;17.35;5.65;;;;;;;4.40;49.24;100840.42;1687997;84;26802;-60
2022/05/09 21:48:23;;;;;;;10.23;4.65;;;;;;;4.34;49.36;100840.42;1726370;82;21108;-60
2022/05/09 21:50:49;;;;;;;8.90;5.03;;;;;;;4.31;49.54;100840.44;1718983;82;21049;-60
2022/05/09 21:53:22;;;;;;;7.97;3.72;;;;;;;4.25;49.45;100842.17;1728321;81;20947;-61
2022/05/09 21:55:49;;;;;;;9.15;4.33;;;;;;;4.22;49.69;100837.45;1711211;82;21500;-60
2022/05/09 21:58:15;;;;;;;10.98;5.80;;;;;;;4.19;49.77;100836.17;1703369;84;21052;-60
2022/05/09 22:00:53;;;;;;;10.58;5.15;;;;;;;4.15;49.83;100832.75;1711365;83;21521;-61
2022/05/09 22:03:19;;;;;;;8.03;4.53;;;;;;;4.08;49.89;100833.62;1708671;83;20947;-60
2022/05/09 22:05:53;;;;;;;16.62;6.47;;;;;;;4.06;49.93;100836.63;1717715;81;21030;-60
2022/05/09 22:08:29;;;;;;;14.53;5.50;;;;;;;4.03;50.01;100834.05;1715166;82;21101;-60
2022/05/09 22:10:56;;;;;;;11.03;4.55;;;;;;;3.98;50.10;100834.53;1722413;81;20943;-59
2022/05/09 22:13:24;;;;;;;11.88;4.80;;;;;;;3.97;50.23;100836.22;1715223;83;23731;-60
2022/05/09 22:15:50;;;;;;;8.95;4.47;;;;;;;3.94;50.22;100831.06;1716821;83;21021;-59
2022/05/09 22:18:17;;;;;;;13.38;6.00;;;;;;;3.93;50.37;100825.92;1721773;82;21197;-59
2022/05/09 22:20:49;;;;;;;8.88;4.40;;;;;;;3.91;50.30;100825.05;1726910;82;20990;-60
2022/05/09 22:23:17;;;;;;;13.58;7.35;;;;;;;3.88;50.44;100825.06;1721763;82;20966;-59
2022/05/09 22:25:46;;;;;;;;;;;;;;;3.87;50.58;100824.65;1724066;82;20983;-60
2022/05/09 22:28:12;;;;;;;15.40;5.87;;;;;;;3.87;50.90;100818.19;1708343;82;20528;-60
2022/05/09 22:30:39;;;;;;;14.73;7.22;;;;;;;3.84;50.82;100813.89;1714674;83;20899;-61
2022/05/09 22:33:06;;;;;;;13.88;6.12;;;;;;;3.85;50.77;100812.16;1709425;83;21136;-60
2022/05/09 22:35:33;;;;;;;13.90;6.30;;;;;;;3.84;50.87;100813.00;1707665;83;21029;-61
2022/05/09 22:38:01;;;;;;;16.97;8.95;;;;;;;3.84;50.96;100810.41;1713229;83;21673;-61
2022/05/09 22:40:28;;;;;;;19.17;7.83;;;;;;;3.84;51.00;100805.25;1716048;82;21136;-60
2022/05/09 22:42:56;;;;;;;22.48;9.35;;;;;;;3.85;51.14;100808.28;1721752;81;21009;-60
2022/05/09 22:45:27;;;;;;;23.70;9.53;;;;;;;3.85;51.13;100803.11;1722992;82;21624;-61
2022/05/09 22:48:09;;;;;;;22.07;9.20;;;;;;;3.86;51.32;100798.36;1721436;82;20920;-59
2022/05/09 22:50:36;;;;;;;23.20;9.78;;;;;;;3.89;51.34;100789.30;1725191;82;21734;-60
2022/05/09 22:53:08;;;;;;;16.57;7.90;;;;;;;3.92;51.56;100785.42;1720407;82;21085;-60
2022/05/09 22:55:35;;;;;;;14.80;6.35;;;;;;;3.93;51.44;100782.84;1723799;82;21053;-60
2022/05/09 22:58:03;;;;;;;;;;;;;;;3.94;51.66;100783.70;1721592;82;21231;-60
2022/05/09 23:00:30;;;;;;;14.15;5.85;;;;;;;3.96;51.78;100789.73;1722065;82;20793;-60
2022/05/09 23:03:01;;;;;;;13.68;5.22;;;;;;;3.93;51.75;100784.58;1714160;82;21386;-61
2022/05/09 23:05:32;;;;;;;14.15;5.40;;;;;;;3.94;51.92;100788.87;1732027;82;20953;-60
2022/05/09 23:07:59;;;;;;;13.22;5.10;;;;;;;3.96;51.90;100784.56;1726948;82;20955;-60
2022/05/09 23:10:37;;;;;;;11.85;4.90;;;;;;;3.99;52.03;100784.55;1721058;82;21625;-60
2022/05/09 23:13:06;;;;;;;14.05;5.42;;;;;;;4.02;52.18;100778.08;1713392;82;20974;-60
2022/05/09 23:15:33;;;;;;;10.35;5.25;;;;;;;4.05;52.22;100783.23;1720605;82;21057;-60
2022/05/09 23:18:01;;;;;;;9.13;4.78;;;;;;;4.08;52.14;100783.66;1733218;81;21021;-61
2022/05/09 23:20:30;;;;;;;7.08;4.28;;;;;;;4.04;52.26;100776.35;1704559;83;21042;-60
2022/05/09 23:22:57;;;;;;;8.95;4.42;;;;;;;4.04;52.52;100777.65;1711921;82;21149;-60
2022/05/09 23:25:24;;;;;;;8.40;4.33;;;;;;;4.06;52.60;100773.31;1723056;82;21653;-60
2022/05/09 23:27:52;;;;;;;10.03;4.22;;;;;;;4.11;52.62;100768.98;1726217;80;21622;-60
2022/05/09 23:30:23;;;;;;;8.23;3.80;;;;;;;4.18;52.74;100768.11;1719843;82;21480;-60
2022/05/09 23:32:50;;;;;;;7.70;4.55;;;;;;;4.22;52.77;100764.62;1726494;82;21104;-60
2022/05/09 23:35:24;;;;;;;11.80;3.92;;;;;;;4.31;52.75;100762.87;1716417;82;20990;-59
2022/05/09 23:37:51;;;;;;;8.00;3.15;;;;;;;4.33;52.77;100755.97;1721536;82;21140;-59
2022/05/09 23:40:18;;;;;;;9.85;4.87;;;;;;;4.33;52.68;100758.56;1720835;82;21491;-60
2022/05/09 23:42:50;;;;;;;6.62;3.92;;;;;;;4.30;52.68;100758.58;1721699;82;20981;-59
2022/05/09 23:45:20;;;;;;;7.00;3.65;;;;;;;4.26;52.77;100753.42;1723912;82;21561;-59
2022/05/09 23:47:48;;;;;;;7.72;4.42;;;;;;;4.22;52.82;100745.67;1716964;83;21035;-60
2022/05/09 23:50:22;;;;;;;10.40;4.35;;;;;;;4.19;52.82;100749.14;1687565;83;22321;-59
2022/05/09 23:52:51;;;;;;;8.68;4.10;;;;;;;4.16;52.96;100754.32;1708324;83;21364;-59
2022/05/09 23:55:18;;;;;;;12.13;4.22;;;;;;;4.15;53.01;100747.45;1713029;83;21508;-59
2022/05/09 23:57:45;;;;;;;8.35;3.92;;;;;;;4.12;53.02;100744.88;1720014;82;21124;-60
